createdAt,value
2023-05-30T00:02:01.790Z,1.60
2023-05-30T00:04:28.395Z,1.50
2023-05-30T00:06:55.052Z,1.88
2023-05-30T00:09:21.550Z,2.00
2023-05-30T00:11:49.549Z,2.13
2023-05-30T00:14:21.428Z,1.70
2023-05-30T00:16:48.779Z,1.55
2023-05-30T00:19:15.536Z,1.55
2023-05-30T00:21:42.121Z,1.40
2023-05-30T00:24:09.031Z,2.17
2023-05-30T00:26:35.570Z,1.88
2023-05-30T00:29:02.116Z,2.10
2023-05-30T00:31:30.667Z,1.33
2023-05-30T00:33:57.544Z,1.77
2023-05-30T00:36:24.150Z,1.73
2023-05-30T00:38:50.713Z,2.13
2023-05-30T00:41:18.096Z,1.60
2023-05-30T00:43:45.094Z,1.73
2023-05-30T00:46:13.075Z,1.50
2023-05-30T00:48:40.145Z,2.13
2023-05-30T00:51:10.109Z,2.03
2023-05-30T00:53:38.189Z,1.60
2023-05-30T00:56:05.005Z,1.63
2023-05-30T00:58:31.630Z,1.50
2023-05-30T01:00:58.961Z,1.83
2023-05-30T01:03:34.447Z,1.48
2023-05-30T01:06:02.365Z,1.77
2023-05-30T01:08:28.963Z,1.60
2023-05-30T01:11:08.002Z,2.15
2023-05-30T01:13:46.250Z,1.90
2023-05-30T01:16:17.935Z,1.58
2023-05-30T01:18:57.192Z,1.55
2023-05-30T01:21:27.382Z,1.77
2023-05-30T01:24:20.290Z,1.67
2023-05-30T01:26:58.791Z,1.48
2023-05-30T01:29:26.539Z,1.45
2023-05-30T01:31:55.836Z,1.73
2023-05-30T01:34:23.514Z,1.58
2023-05-30T01:36:50.019Z,1.80
2023-05-30T01:39:16.509Z,1.60
2023-05-30T01:42:20.152Z,1.70
2023-05-30T01:44:49.473Z,1.90
2023-05-30T01:47:23.092Z,1.48
2023-05-30T01:50:01.492Z,2.20
2023-05-30T01:52:32.601Z,1.98
2023-05-30T01:55:04.274Z,2.03
2023-05-30T01:57:31.690Z,1.95
2023-05-30T02:00:00.638Z,1.85
2023-05-30T02:04:53.676Z,1.77
2023-05-30T02:07:20.162Z,1.75
2023-05-30T02:09:46.671Z,1.50
2023-05-30T02:12:13.226Z,1.70
2023-05-30T02:14:39.889Z,1.70
2023-05-30T02:17:06.825Z,1.70
2023-05-30T02:19:33.518Z,1.52
2023-05-30T02:22:00.068Z,2.15
2023-05-30T02:24:26.604Z,1.70
2023-05-30T02:26:53.166Z,1.52
2023-05-30T02:29:19.705Z,1.55
2023-05-30T02:31:46.237Z,1.70
2023-05-30T02:34:12.924Z,1.58
2023-05-30T02:36:40.057Z,2.08
2023-05-30T02:39:09.604Z,2.25
2023-05-30T02:41:37.923Z,2.90
2023-05-30T02:44:05.579Z,1.67
2023-05-30T02:46:32.180Z,2.30
2023-05-30T02:48:58.906Z,1.55
2023-05-30T02:51:25.534Z,1.63
2023-05-30T02:53:52.077Z,1.88
2023-05-30T02:56:18.709Z,2.08
2023-05-30T02:58:45.324Z,1.90
2023-05-30T03:01:11.844Z,1.65
2023-05-30T03:03:38.932Z,2.35
2023-05-30T03:06:06.521Z,2.67
2023-05-30T03:08:33.150Z,1.45
2023-05-30T03:10:59.873Z,1.90
2023-05-30T03:13:26.474Z,2.75
2023-05-30T03:15:53.050Z,1.95
2023-05-30T03:18:19.635Z,2.30
2023-05-30T03:20:46.250Z,2.10
2023-05-30T03:23:12.854Z,2.95
2023-05-30T03:25:39.382Z,1.75
2023-05-30T03:28:08.456Z,2.00
2023-05-30T03:30:35.703Z,1.95
2023-05-30T03:33:02.556Z,2.00
2023-05-30T03:35:29.159Z,2.20
2023-05-30T03:37:55.888Z,2.42
2023-05-30T03:40:22.411Z,2.03
2023-05-30T03:42:48.910Z,2.20
2023-05-30T03:45:15.585Z,2.33
2023-05-30T03:47:42.135Z,1.83
2023-05-30T03:50:09.017Z,2.53
2023-05-30T03:52:35.498Z,1.65
2023-05-30T03:55:03.100Z,2.20
2023-05-30T03:57:29.615Z,1.90
2023-05-30T03:59:56.136Z,2.22
2023-05-30T04:02:22.680Z,2.17
2023-05-30T04:04:49.245Z,2.17
2023-05-30T04:07:16.603Z,2.45
2023-05-30T04:09:43.169Z,2.38
2023-05-30T04:12:09.832Z,2.45
2023-05-30T04:14:36.351Z,2.47
2023-05-30T04:17:02.910Z,2.10
2023-05-30T04:19:29.417Z,2.08
2023-05-30T04:21:55.994Z,3.50
2023-05-30T04:24:22.578Z,2.50
2023-05-30T04:26:50.277Z,2.75
2023-05-30T04:29:18.085Z,1.90
2023-05-30T04:31:45.202Z,2.38
2023-05-30T04:34:12.327Z,2.70
2023-05-30T04:36:39.364Z,3.08
2023-05-30T04:39:05.905Z,2.83
2023-05-30T04:41:33.584Z,2.78
2023-05-30T04:44:01.152Z,2.80
2023-05-30T04:46:29.838Z,2.58
2023-05-30T04:51:28.798Z,2.67
2023-05-30T04:53:55.381Z,2.75
2023-05-30T04:56:21.941Z,2.47
2023-05-30T04:58:55.259Z,2.65
2023-05-30T05:01:25.067Z,3.22
2023-05-30T05:03:52.073Z,3.30
2023-05-30T05:06:18.957Z,2.70
2023-05-30T05:08:45.673Z,2.60
2023-05-30T05:11:12.299Z,2.60
2023-05-30T05:13:38.788Z,2.30
2023-05-30T05:16:05.871Z,2.88
2023-05-30T05:18:32.939Z,2.78
2023-05-30T05:20:59.963Z,2.78
2023-05-30T05:23:28.615Z,2.42
2023-05-30T05:25:55.623Z,2.65
2023-05-30T05:28:22.755Z,2.90
2023-05-30T05:30:49.788Z,2.50
2023-05-30T05:33:16.809Z,2.22
2023-05-30T05:35:46.440Z,2.38
2023-05-30T05:38:14.118Z,3.30
2023-05-30T05:40:40.871Z,2.92
2023-05-30T05:43:07.463Z,3.20
2023-05-30T05:45:34.082Z,2.85
2023-05-30T05:48:01.429Z,2.58
2023-05-30T05:50:28.128Z,2.83
2023-05-30T05:52:55.389Z,1.95
2023-05-30T05:55:21.956Z,2.60
2023-05-30T05:57:48.477Z,2.25
2023-05-30T06:00:15.396Z,2.25
2023-05-30T06:02:42.295Z,2.25
2023-05-30T06:05:09.398Z,3.03
2023-05-30T06:07:35.967Z,2.90
2023-05-30T06:10:02.590Z,3.38
2023-05-30T06:12:29.111Z,2.65
2023-05-30T06:14:55.593Z,2.50
2023-05-30T06:17:22.201Z,2.60
2023-05-30T06:19:51.220Z,3.50
2023-05-30T06:22:18.173Z,1.88
2023-05-30T06:24:44.755Z,3.03
2023-05-30T06:27:11.375Z,2.45
2023-05-30T06:29:37.892Z,2.55
2023-05-30T06:32:15.327Z,3.00
2023-05-30T06:34:43.135Z,3.25
2023-05-30T06:37:11.627Z,2.33
2023-05-30T06:39:40.085Z,2.50
2023-05-30T06:42:09.509Z,2.70
2023-05-30T06:44:36.450Z,2.53
2023-05-30T06:47:04.123Z,2.85
2023-05-30T06:49:33.738Z,3.17
2023-05-30T06:52:00.400Z,2.80
2023-05-30T06:54:27.020Z,2.30
2023-05-30T06:56:53.595Z,2.65
2023-05-30T06:59:20.379Z,2.90
2023-05-30T07:01:47.394Z,2.42
2023-05-30T07:04:14.047Z,2.55
2023-05-30T07:06:41.060Z,2.45
2023-05-30T07:09:08.340Z,2.60
2023-05-30T07:11:34.862Z,2.53
2023-05-30T07:14:01.369Z,2.13
2023-05-30T07:16:27.992Z,3.33
2023-05-30T07:19:11.222Z,2.72
2023-05-30T07:21:39.952Z,2.92
2023-05-30T07:24:06.978Z,3.25
2023-05-30T07:26:34.389Z,3.40
2023-05-30T07:29:01.337Z,3.00
2023-05-30T07:31:27.905Z,2.80
2023-05-30T07:33:54.472Z,2.90
2023-05-30T07:36:21.099Z,3.75
2023-05-30T07:38:47.625Z,3.53
2023-05-30T07:41:14.118Z,3.78
2023-05-30T07:43:40.715Z,2.80
2023-05-30T07:46:07.413Z,3.20
2023-05-30T07:48:33.970Z,3.13
2023-05-30T07:51:00.742Z,3.00
2023-05-30T07:53:27.449Z,2.75
2023-05-30T07:55:53.979Z,3.25
2023-05-30T07:58:20.545Z,2.83
2023-05-30T08:00:47.068Z,3.55
2023-05-30T08:03:13.726Z,2.80
2023-05-30T08:05:40.259Z,2.55
2023-05-30T08:08:08.252Z,2.85
2023-05-30T08:10:35.569Z,2.85
2023-05-30T08:13:03.202Z,2.85
2023-05-30T08:15:29.717Z,2.72
2023-05-30T08:18:01.352Z,4.10
2023-05-30T08:20:28.375Z,2.67
2023-05-30T08:22:54.922Z,2.88
2023-05-30T08:25:25.185Z,2.83
2023-05-30T08:27:54.025Z,3.67
2023-05-30T08:30:21.182Z,3.17
2023-05-30T08:32:47.801Z,3.05
2023-05-30T08:35:15.147Z,2.90
2023-05-30T08:37:42.776Z,2.80
2023-05-30T08:40:13.770Z,3.00
2023-05-30T08:42:40.923Z,3.15
2023-05-30T08:45:08.117Z,2.58
2023-05-30T08:47:36.097Z,2.42
2023-05-30T08:50:08.406Z,2.70
2023-05-30T08:52:37.575Z,2.72
2023-05-30T08:55:16.001Z,3.50
2023-05-30T08:57:52.490Z,2.90
2023-05-30T09:00:19.410Z,2.85
2023-05-30T09:02:46.914Z,3.10
2023-05-30T09:05:16.702Z,2.75
2023-05-30T09:07:44.830Z,2.88
2023-05-30T09:10:12.805Z,2.70
2023-05-30T09:12:42.503Z,3.00
2023-05-30T09:15:09.554Z,3.85
2023-05-30T09:17:36.124Z,3.13
2023-05-30T09:20:03.480Z,3.00
2023-05-30T09:22:30.412Z,3.33
2023-05-30T09:25:05.032Z,2.95
2023-05-30T09:27:36.211Z,3.08
2023-05-30T09:30:10.579Z,2.83
2023-05-30T09:32:40.559Z,3.20
2023-05-30T09:35:10.395Z,3.00
2023-05-30T09:37:38.668Z,2.72
2023-05-30T09:40:08.245Z,3.20
2023-05-30T09:42:40.181Z,3.20
2023-05-30T09:45:08.865Z,3.03
2023-05-30T09:47:54.162Z,3.63
2023-05-30T09:50:22.815Z,3.28
2023-05-30T09:52:53.065Z,2.80
2023-05-30T09:55:20.878Z,2.72
2023-05-30T09:57:49.355Z,3.08
2023-05-30T10:00:18.568Z,3.22
2023-05-30T10:02:51.781Z,3.03
2023-05-30T10:05:20.520Z,2.67
2023-05-30T10:07:52.333Z,2.63
2023-05-30T10:10:19.916Z,3.10
2023-05-30T10:12:54.781Z,3.05
2023-05-30T10:15:23.285Z,2.85
2023-05-30T10:18:07.621Z,2.28
2023-05-30T10:20:37.716Z,2.83
2023-05-30T10:23:08.444Z,2.70
2023-05-30T10:25:44.943Z,2.90
2023-05-30T10:28:19.453Z,3.05
2023-05-30T10:30:48.428Z,2.80
2023-05-30T10:33:18.908Z,2.85
2023-05-30T10:35:49.086Z,2.60
2023-05-30T10:38:17.276Z,2.25
2023-05-30T10:40:56.516Z,2.85
2023-05-30T10:43:32.282Z,3.30
2023-05-30T10:46:04.923Z,3.20
2023-05-30T10:48:51.585Z,2.38
2023-05-30T10:51:18.322Z,2.33
2023-05-30T10:53:47.095Z,2.60
2023-05-30T10:56:41.622Z,3.00
2023-05-30T10:59:18.500Z,3.35
2023-05-30T11:02:06.511Z,2.85
2023-05-30T11:04:46.277Z,2.90
2023-05-30T11:10:01.312Z,3.08
2023-05-30T11:12:27.916Z,2.90
2023-05-30T11:14:56.790Z,2.97
2023-05-30T11:17:31.942Z,3.20
2023-05-30T11:20:16.474Z,2.92
2023-05-30T11:23:01.889Z,3.03
2023-05-30T11:25:31.092Z,2.75
2023-05-30T11:28:13.696Z,2.70
2023-05-30T11:30:46.375Z,2.92
2023-05-30T11:33:14.466Z,3.20
2023-05-30T11:35:47.283Z,3.25
2023-05-30T11:38:24.760Z,3.65
2023-05-30T11:40:52.034Z,2.70
2023-05-30T11:43:18.922Z,2.95
2023-05-30T11:45:47.809Z,2.70
2023-05-30T11:48:14.505Z,2.90
2023-05-30T11:50:42.657Z,2.75
2023-05-30T11:55:40.497Z,3.10
2023-05-30T11:58:07.237Z,3.00
2023-05-30T12:00:33.905Z,2.72
2023-05-30T12:03:01.347Z,3.10
2023-05-30T12:05:29.800Z,3.03
2023-05-30T12:07:56.415Z,3.25
2023-05-30T12:10:30.585Z,3.05
2023-05-30T12:12:57.255Z,3.38
2023-05-30T12:15:25.597Z,2.65
2023-05-30T12:17:53.028Z,2.60
2023-05-30T12:20:21.886Z,3.28
2023-05-30T12:22:49.157Z,3.40
2023-05-30T12:25:15.789Z,3.22
2023-05-30T12:27:48.472Z,3.47
2023-05-30T12:30:17.198Z,2.60
2023-05-30T12:32:44.138Z,3.20
2023-05-30T12:35:12.164Z,3.10
2023-05-30T12:37:38.922Z,2.75
2023-05-30T12:40:07.432Z,3.38
2023-05-30T12:42:37.353Z,2.63
2023-05-30T12:45:11.540Z,2.63
2023-05-30T12:47:38.155Z,3.00
2023-05-30T12:50:06.010Z,2.90
2023-05-30T12:52:32.984Z,3.33
2023-05-30T12:54:59.575Z,2.60
2023-05-30T12:57:29.137Z,3.17
2023-05-30T12:59:56.900Z,2.53
2023-05-30T13:02:27.920Z,3.53
2023-05-30T13:04:55.004Z,2.63
2023-05-30T13:07:22.276Z,2.95
2023-05-30T13:09:48.916Z,3.30
2023-05-30T13:12:17.036Z,3.40
2023-05-30T13:14:46.075Z,3.08
2023-05-30T13:17:13.306Z,3.45
2023-05-30T13:19:40.139Z,3.17
2023-05-30T13:22:08.776Z,2.70
2023-05-30T13:24:35.648Z,2.70
2023-05-30T13:27:02.287Z,2.67
2023-05-30T13:29:28.888Z,2.88
2023-05-30T13:31:55.584Z,3.00
2023-05-30T13:34:22.569Z,2.13
2023-05-30T13:36:49.198Z,2.55
2023-05-30T13:39:15.859Z,3.08
2023-05-30T13:41:42.520Z,2.17
2023-05-30T13:44:09.067Z,2.78
2023-05-30T13:49:08.648Z,2.65
2023-05-30T13:54:06.499Z,2.35
2023-05-30T13:56:33.493Z,2.78
2023-05-30T13:59:00.789Z,2.47
2023-05-30T14:01:30.995Z,2.22
2023-05-30T14:04:01.068Z,2.88
2023-05-30T14:06:28.287Z,2.80
2023-05-30T14:08:55.410Z,2.90
2023-05-30T14:11:22.614Z,2.83
2023-05-30T14:13:49.969Z,3.08
2023-05-30T14:16:17.022Z,3.10
2023-05-30T14:18:46.879Z,2.80
2023-05-30T14:21:14.586Z,2.78
2023-05-30T14:23:41.340Z,2.63
2023-05-30T14:26:08.128Z,2.60
2023-05-30T14:28:34.806Z,2.50
2023-05-30T14:31:01.926Z,2.63
2023-05-30T14:33:28.809Z,2.80
2023-05-30T14:35:55.601Z,2.60
2023-05-30T14:38:22.304Z,2.70
2023-05-30T14:40:49.200Z,2.95
2023-05-30T14:43:15.931Z,2.58
2023-05-30T14:45:42.647Z,2.90
2023-05-30T14:48:09.872Z,2.60
2023-05-30T14:50:36.792Z,3.08
2023-05-30T14:53:03.900Z,2.50
2023-05-30T14:55:31.501Z,2.40
2023-05-30T14:57:58.423Z,3.05
2023-05-30T15:00:25.827Z,2.47
2023-05-30T15:02:53.146Z,2.40
2023-05-30T15:05:21.030Z,2.60
2023-05-30T15:07:47.850Z,2.70
2023-05-30T15:10:15.680Z,2.50
2023-05-30T15:12:43.365Z,2.33
2023-05-30T15:15:10.540Z,2.55
2023-05-30T15:17:38.337Z,2.85
2023-05-30T15:22:32.373Z,2.03
2023-05-30T15:25:01.513Z,2.42
2023-05-30T15:27:28.927Z,2.67
2023-05-30T15:29:55.984Z,2.35
2023-05-30T15:32:23.820Z,2.50
2023-05-30T15:37:16.995Z,2.30
2023-05-30T15:39:43.688Z,2.70
2023-05-30T15:42:10.339Z,2.10
2023-05-30T15:44:38.108Z,2.45
2023-05-30T15:47:05.736Z,2.58
2023-05-30T15:49:32.492Z,2.28
2023-05-30T15:51:59.230Z,2.35
2023-05-30T15:54:26.393Z,2.80
2023-05-30T15:56:53.150Z,2.17
2023-05-30T15:59:19.948Z,2.72
2023-05-30T16:01:46.735Z,2.25
2023-05-30T16:04:13.643Z,2.05
2023-05-30T16:06:40.784Z,2.53
2023-05-30T16:09:07.633Z,2.45
2023-05-30T16:11:34.581Z,2.58
2023-05-30T16:14:01.518Z,2.72
2023-05-30T16:16:28.628Z,2.05
2023-05-30T16:18:55.611Z,2.22
2023-05-30T16:21:22.365Z,2.80
2023-05-30T16:23:49.004Z,2.63
2023-05-30T16:26:15.775Z,2.53
2023-05-30T16:28:42.460Z,2.38
2023-05-30T16:31:10.034Z,2.03
2023-05-30T16:33:37.433Z,2.53
2023-05-30T16:36:07.850Z,2.63
2023-05-30T16:38:37.910Z,2.60
2023-05-30T16:41:12.746Z,2.80
2023-05-30T16:43:42.689Z,3.28
2023-05-30T16:46:10.736Z,2.97
2023-05-30T16:48:37.515Z,3.15
2023-05-30T16:51:04.651Z,3.45
2023-05-30T16:53:31.558Z,3.35
2023-05-30T16:55:58.328Z,3.13
2023-05-30T16:58:28.081Z,3.88
2023-05-30T17:00:55.038Z,3.95
2023-05-30T17:03:24.563Z,3.78
2023-05-30T17:06:04.002Z,4.20
2023-05-30T17:08:33.864Z,4.47
2023-05-30T17:14:18.232Z,4.07
2023-05-30T17:16:45.238Z,5.47
2023-05-30T17:19:21.385Z,4.90
2023-05-30T17:21:55.702Z,5.03
2023-05-30T17:24:22.460Z,5.45
2023-05-30T17:26:49.183Z,5.25
2023-05-30T17:29:16.046Z,5.07
2023-05-30T17:31:42.922Z,4.65
2023-05-30T17:34:13.011Z,4.95
2023-05-30T17:36:39.599Z,4.07
2023-05-30T17:39:06.967Z,4.82
2023-05-30T17:41:33.516Z,5.90
2023-05-30T17:44:00.171Z,4.28
2023-05-30T17:46:27.002Z,4.07
2023-05-30T17:48:53.707Z,3.90
2023-05-30T17:51:20.381Z,3.65
2023-05-30T17:53:55.979Z,3.55
2023-05-30T17:56:23.704Z,3.65
2023-05-30T18:01:18.204Z,3.42
2023-05-30T18:03:44.952Z,2.92
2023-05-30T18:06:23.053Z,2.92
2023-05-30T18:08:52.828Z,2.65
2023-05-30T18:11:19.842Z,2.72
2023-05-30T18:13:46.526Z,2.25
2023-05-30T18:16:13.184Z,2.25
2023-05-30T18:18:39.855Z,2.28
2023-05-30T18:21:07.222Z,2.30
2023-05-30T18:23:34.911Z,1.95
2023-05-30T18:26:03.952Z,1.75
2023-05-30T18:28:30.619Z,2.13
2023-05-30T18:30:57.578Z,1.70
2023-05-30T18:33:24.197Z,1.60
2023-05-30T18:36:03.960Z,2.00
2023-05-30T18:38:35.279Z,2.10
2023-05-30T18:41:02.294Z,2.00
2023-05-30T18:43:29.072Z,2.00
2023-05-30T18:45:55.743Z,2.05
2023-05-30T18:48:35.779Z,2.20
2023-05-30T18:51:09.900Z,2.10
2023-05-30T18:53:36.636Z,1.90
2023-05-30T18:56:03.259Z,2.40
2023-05-30T18:58:30.484Z,2.00
2023-05-30T19:00:57.268Z,2.20
2023-05-30T19:03:26.119Z,2.15
2023-05-30T19:05:52.914Z,2.72
2023-05-30T19:08:19.626Z,2.20
2023-05-30T19:10:46.510Z,2.50
2023-05-30T19:13:14.468Z,2.50
2023-05-30T19:15:41.470Z,2.20
2023-05-30T19:18:08.094Z,2.28
2023-05-30T19:20:34.845Z,2.38
2023-05-30T19:23:01.770Z,2.35
2023-05-30T19:25:28.707Z,2.75
2023-05-30T19:28:08.857Z,2.53
2023-05-30T19:30:37.061Z,2.45
2023-05-30T19:33:04.558Z,2.88
2023-05-30T19:35:31.471Z,3.10
2023-05-30T19:38:01.358Z,2.45
2023-05-30T19:40:28.668Z,2.55
2023-05-30T19:42:55.259Z,2.70
2023-05-30T19:45:22.372Z,2.80
2023-05-30T19:47:50.001Z,2.60
2023-05-30T19:50:16.884Z,2.83
2023-05-30T19:52:43.960Z,2.35
2023-05-30T19:55:10.721Z,2.70
2023-05-30T19:57:38.052Z,2.80
2023-05-30T20:00:06.176Z,2.67
2023-05-30T20:02:35.864Z,2.75
2023-05-30T20:05:03.751Z,2.28
2023-05-30T20:07:30.536Z,2.60
2023-05-30T20:09:57.556Z,2.80
2023-05-30T20:12:24.135Z,3.38
2023-05-30T20:14:50.982Z,2.75
2023-05-30T20:17:17.564Z,2.78
2023-05-30T20:19:47.133Z,2.50
2023-05-30T20:22:13.718Z,2.78
2023-05-30T20:24:41.329Z,3.17
2023-05-30T20:27:08.495Z,3.30
2023-05-30T20:29:35.401Z,3.17
2023-05-30T20:32:02.549Z,3.00
2023-05-30T20:34:29.296Z,2.95
2023-05-30T20:36:56.013Z,3.60
2023-05-30T20:39:23.204Z,3.53
2023-05-30T20:41:50.450Z,3.10
2023-05-30T20:44:17.288Z,3.47
2023-05-30T20:46:43.974Z,3.80
2023-05-30T20:49:10.563Z,3.35
2023-05-30T20:51:37.440Z,3.70
2023-05-30T20:54:04.323Z,3.70
2023-05-30T20:56:31.093Z,3.70
2023-05-30T20:58:57.743Z,3.25
2023-05-30T21:01:26.230Z,3.22
2023-05-30T21:06:50.743Z,3.05
2023-05-30T21:09:17.305Z,2.30
2023-05-30T21:11:43.880Z,3.05
2023-05-30T21:14:10.470Z,3.75
2023-05-30T21:16:37.050Z,2.30
2023-05-30T21:19:03.652Z,2.42
2023-05-30T21:21:30.281Z,2.95
2023-05-30T21:23:56.878Z,1.92
2023-05-30T21:26:23.434Z,2.60
2023-05-30T21:28:50.035Z,2.90
2023-05-30T21:31:16.590Z,2.90
2023-05-30T21:33:43.140Z,2.80
2023-05-30T21:36:09.961Z,2.50
2023-05-30T21:38:36.558Z,2.78
2023-05-30T21:41:03.216Z,2.60
2023-05-30T21:43:30.097Z,2.53
2023-05-30T21:45:56.719Z,2.90
2023-05-30T21:48:23.347Z,2.58
2023-05-30T21:50:49.995Z,2.60
2023-05-30T21:53:16.529Z,2.55
2023-05-30T21:55:43.058Z,2.80
2023-05-30T21:58:09.917Z,2.75
2023-05-30T22:00:36.514Z,3.00
2023-05-30T22:03:03.125Z,3.13
2023-05-30T22:05:29.776Z,2.90
2023-05-30T22:07:56.314Z,2.70
2023-05-30T22:10:22.836Z,2.65
2023-05-30T22:12:49.354Z,3.00
2023-05-30T22:15:16.120Z,3.20
2023-05-30T22:17:42.758Z,3.15
2023-05-30T22:20:09.608Z,3.50
2023-05-30T22:22:36.206Z,2.90
2023-05-30T22:25:02.979Z,3.70
2023-05-30T22:27:29.915Z,2.65
2023-05-30T22:29:56.567Z,3.53
2023-05-30T22:32:23.304Z,2.78
2023-05-30T22:34:50.078Z,4.00
2023-05-30T22:37:16.623Z,3.22
2023-05-30T22:39:43.171Z,3.65
2023-05-30T22:42:10.785Z,3.90
2023-05-30T22:44:38.743Z,3.75
2023-05-30T22:47:05.707Z,3.28
2023-05-30T22:49:32.282Z,4.35
2023-05-30T22:51:58.832Z,4.05
2023-05-30T22:54:25.436Z,4.07
2023-05-30T22:56:52.463Z,4.13
2023-05-30T22:59:19.167Z,3.40
2023-05-30T23:01:45.726Z,4.22
2023-05-30T23:04:12.249Z,4.43
2023-05-30T23:06:38.830Z,4.00
2023-05-30T23:09:06.694Z,4.20
2023-05-30T23:11:34.811Z,4.15
2023-05-30T23:14:01.738Z,4.32
2023-05-30T23:16:28.348Z,3.95
2023-05-30T23:18:54.944Z,4.40
2023-05-30T23:21:22.297Z,4.25
2023-05-30T23:23:48.928Z,4.13
2023-05-30T23:26:15.474Z,4.30
2023-05-30T23:28:42.022Z,3.63
2023-05-30T23:31:08.664Z,3.88
2023-05-30T23:33:35.242Z,4.00
2023-05-30T23:36:01.772Z,4.13
2023-05-30T23:38:30.063Z,4.10
2023-05-30T23:40:56.849Z,4.22
2023-05-30T23:43:23.398Z,4.63
2023-05-30T23:45:52.189Z,4.80
2023-05-30T23:50:45.314Z,4.82
2023-05-30T23:53:11.864Z,5.40
2023-05-30T23:55:38.475Z,5.07
2023-05-30T23:58:05.064Z,4.78
